sensor_id;sensor_type;location;lat;lon;timestamp;P1;durP1;ratioP1;P2;durP2;ratioP2
11877;SDS011;5998;42.676;23.268;2024-01-16T00:02:16;19.93;;;12.60;;
11877;SDS011;5998;42.676;23.268;2024-01-16T00:04:44;18.53;;;12.63;;
11877;SDS011;5998;42.676;23.268;2024-01-16T00:07:10;17.50;;;11.43;;
11877;SDS011;5998;42.676;23.268;2024-01-16T00:09:37;18.03;;;11.63;;
11877;SDS011;5998;42.676;23.268;2024-01-16T00:12:04;16.87;;;11.50;;
11877;SDS011;5998;42.676;23.268;2024-01-16T00:14:34;24.17;;;12.47;;
11877;SDS011;5998;42.676;23.268;2024-01-16T00:17:01;16.67;;;11.80;;
11877;SDS011;5998;42.676;23.268;2024-01-16T00:19:28;18.00;;;11.40;;
11877;SDS011;5998;42.676;23.268;2024-01-16T00:21:56;17.83;;;11.93;;
11877;SDS011;5998;42.676;23.268;2024-01-16T00:24:23;16.73;;;12.33;;
11877;SDS011;5998;42.676;23.268;2024-01-16T00:26:50;17.83;;;12.27;;
11877;SDS011;5998;42.676;23.268;2024-01-16T00:29:16;21.53;;;13.27;;
11877;SDS011;5998;42.676;23.268;2024-01-16T00:31:43;18.97;;;12.40;;
11877;SDS011;5998;42.676;23.268;2024-01-16T00:34:10;20.10;;;12.43;;
11877;SDS011;5998;42.676;23.268;2024-01-16T00:36:36;18.13;;;12.47;;
11877;SDS011;5998;42.676;23.268;2024-01-16T00:39:04;17.70;;;11.07;;
11877;SDS011;5998;42.676;23.268;2024-01-16T00:41:32;15.33;;;10.77;;
11877;SDS011;5998;42.676;23.268;2024-01-16T00:43:59;18.57;;;11.20;;
11877;SDS011;5998;42.676;23.268;2024-01-16T00:46:25;15.80;;;10.77;;
11877;SDS011;5998;42.676;23.268;2024-01-16T00:48:52;23.93;;;15.77;;
11877;SDS011;5998;42.676;23.268;2024-01-16T00:51:19;20.67;;;14.37;;
11877;SDS011;5998;42.676;23.268;2024-01-16T00:53:45;20.60;;;13.37;;
11877;SDS011;5998;42.676;23.268;2024-01-16T00:56:13;24.63;;;13.43;;
11877;SDS011;5998;42.676;23.268;2024-01-16T00:58:40;28.10;;;16.30;;
11877;SDS011;5998;42.676;23.268;2024-01-16T01:01:07;23.93;;;14.47;;
11877;SDS011;5998;42.676;23.268;2024-01-16T01:03:33;22.30;;;13.77;;
11877;SDS011;5998;42.676;23.268;2024-01-16T01:06:00;25.73;;;15.70;;
11877;SDS011;5998;42.676;23.268;2024-01-16T01:08:27;23.30;;;13.10;;
11877;SDS011;5998;42.676;23.268;2024-01-16T01:10:54;22.80;;;13.10;;
11877;SDS011;5998;42.676;23.268;2024-01-16T01:13:22;16.30;;;8.70;;
11877;SDS011;5998;42.676;23.268;2024-01-16T01:15:50;18.87;;;10.70;;
11877;SDS011;5998;42.676;23.268;2024-01-16T01:18:16;15.23;;;10.40;;
11877;SDS011;5998;42.676;23.268;2024-01-16T01:20:43;18.77;;;9.30;;
11877;SDS011;5998;42.676;23.268;2024-01-16T01:23:10;14.17;;;9.37;;
11877;SDS011;5998;42.676;23.268;2024-01-16T01:25:37;13.63;;;8.73;;
11877;SDS011;5998;42.676;23.268;2024-01-16T01:28:04;11.70;;;8.27;;
11877;SDS011;5998;42.676;23.268;2024-01-16T01:30:32;9.43;;;6.47;;
11877;SDS011;5998;42.676;23.268;2024-01-16T01:32:59;12.40;;;8.00;;
11877;SDS011;5998;42.676;23.268;2024-01-16T01:35:26;13.67;;;8.23;;
11877;SDS011;5998;42.676;23.268;2024-01-16T01:37:52;8.30;;;6.63;;
11877;SDS011;5998;42.676;23.268;2024-01-16T01:40:19;10.17;;;6.63;;
11877;SDS011;5998;42.676;23.268;2024-01-16T01:42:46;9.83;;;6.67;;
11877;SDS011;5998;42.676;23.268;2024-01-16T01:45:13;9.17;;;7.13;;
11877;SDS011;5998;42.676;23.268;2024-01-16T01:47:41;9.37;;;7.23;;
11877;SDS011;5998;42.676;23.268;2024-01-16T01:50:08;12.70;;;8.30;;
11877;SDS011;5998;42.676;23.268;2024-01-16T01:52:35;10.47;;;7.73;;
11877;SDS011;5998;42.676;23.268;2024-01-16T01:55:04;9.17;;;6.93;;
11877;SDS011;5998;42.676;23.268;2024-01-16T01:57:36;11.50;;;8.27;;
11877;SDS011;5998;42.676;23.268;2024-01-16T02:00:04;10.67;;;7.30;;
11877;SDS011;5998;42.676;23.268;2024-01-16T02:02:32;10.80;;;7.50;;
11877;SDS011;5998;42.676;23.268;2024-01-16T02:05:00;11.47;;;7.10;;
11877;SDS011;5998;42.676;23.268;2024-01-16T02:07:28;10.53;;;7.50;;
11877;SDS011;5998;42.676;23.268;2024-01-16T02:09:57;11.67;;;6.90;;
11877;SDS011;5998;42.676;23.268;2024-01-16T02:12:25;11.90;;;7.43;;
11877;SDS011;5998;42.676;23.268;2024-01-16T02:14:52;8.73;;;6.73;;
11877;SDS011;5998;42.676;23.268;2024-01-16T02:17:19;10.70;;;7.80;;
11877;SDS011;5998;42.676;23.268;2024-01-16T02:19:45;9.47;;;7.40;;
11877;SDS011;5998;42.676;23.268;2024-01-16T02:22:15;9.30;;;7.07;;
11877;SDS011;5998;42.676;23.268;2024-01-16T02:24:47;8.43;;;6.50;;
11877;SDS011;5998;42.676;23.268;2024-01-16T02:27:14;8.73;;;6.37;;
11877;SDS011;5998;42.676;23.268;2024-01-16T02:29:41;11.13;;;8.10;;
11877;SDS011;5998;42.676;23.268;2024-01-16T02:32:08;9.53;;;7.03;;
11877;SDS011;5998;42.676;23.268;2024-01-16T02:34:37;14.47;;;9.10;;
11877;SDS011;5998;42.676;23.268;2024-01-16T02:37:04;11.33;;;7.03;;
11877;SDS011;5998;42.676;23.268;2024-01-16T02:39:31;12.77;;;8.03;;
11877;SDS011;5998;42.676;23.268;2024-01-16T02:41:59;12.37;;;7.70;;
11877;SDS011;5998;42.676;23.268;2024-01-16T02:44:25;10.53;;;6.70;;
11877;SDS011;5998;42.676;23.268;2024-01-16T02:46:52;8.67;;;6.60;;
11877;SDS011;5998;42.676;23.268;2024-01-16T02:49:19;8.87;;;6.57;;
11877;SDS011;5998;42.676;23.268;2024-01-16T02:51:46;12.60;;;8.53;;
11877;SDS011;5998;42.676;23.268;2024-01-16T02:54:13;11.37;;;8.60;;
11877;SDS011;5998;42.676;23.268;2024-01-16T02:56:39;14.73;;;9.00;;
11877;SDS011;5998;42.676;23.268;2024-01-16T02:59:08;13.43;;;8.70;;
11877;SDS011;5998;42.676;23.268;2024-01-16T03:01:35;14.43;;;8.60;;
11877;SDS011;5998;42.676;23.268;2024-01-16T03:04:02;12.63;;;8.70;;
11877;SDS011;5998;42.676;23.268;2024-01-16T03:06:29;7.00;;;5.37;;
11877;SDS011;5998;42.676;23.268;2024-01-16T03:08:55;6.40;;;4.63;;
11877;SDS011;5998;42.676;23.268;2024-01-16T03:11:22;4.60;;;3.43;;
11877;SDS011;5998;42.676;23.268;2024-01-16T03:13:49;2.80;;;2.50;;
11877;SDS011;5998;42.676;23.268;2024-01-16T03:16:18;2.37;;;2.17;;
11877;SDS011;5998;42.676;23.268;2024-01-16T03:18:45;2.83;;;2.43;;
11877;SDS011;5998;42.676;23.268;2024-01-16T03:21:13;3.00;;;2.57;;
11877;SDS011;5998;42.676;23.268;2024-01-16T03:23:39;3.60;;;3.30;;
11877;SDS011;5998;42.676;23.268;2024-01-16T03:26:06;2.33;;;2.13;;
11877;SDS011;5998;42.676;23.268;2024-01-16T03:28:33;3.13;;;2.83;;
11877;SDS011;5998;42.676;23.268;2024-01-16T03:30:59;4.57;;;3.30;;
11877;SDS011;5998;42.676;23.268;2024-01-16T03:33:27;3.53;;;3.07;;
11877;SDS011;5998;42.676;23.268;2024-01-16T03:35:54;3.03;;;2.73;;
11877;SDS011;5998;42.676;23.268;2024-01-16T03:38:21;3.00;;;2.70;;
11877;SDS011;5998;42.676;23.268;2024-01-16T03:40:47;3.17;;;2.90;;
11877;SDS011;5998;42.676;23.268;2024-01-16T03:43:14;2.90;;;2.70;;
11877;SDS011;5998;42.676;23.268;2024-01-16T03:45:41;2.40;;;2.20;;
11877;SDS011;5998;42.676;23.268;2024-01-16T03:48:07;2.90;;;2.67;;
11877;SDS011;5998;42.676;23.268;2024-01-16T03:50:35;3.40;;;2.80;;
11877;SDS011;5998;42.676;23.268;2024-01-16T03:53:02;2.93;;;2.37;;
11877;SDS011;5998;42.676;23.268;2024-01-16T03:55:30;3.00;;;2.70;;
11877;SDS011;5998;42.676;23.268;2024-01-16T03:57:56;2.37;;;2.17;;
11877;SDS011;5998;42.676;23.268;2024-01-16T04:00:23;1.90;;;1.80;;
11877;SDS011;5998;42.676;23.268;2024-01-16T04:02:50;2.00;;;1.90;;
11877;SDS011;5998;42.676;23.268;2024-01-16T04:05:17;2.10;;;2.00;;
11877;SDS011;5998;42.676;23.268;2024-01-16T04:07:45;2.77;;;2.50;;
11877;SDS011;5998;42.676;23.268;2024-01-16T04:10:12;2.30;;;2.10;;
11877;SDS011;5998;42.676;23.268;2024-01-16T04:12:38;2.73;;;2.40;;
11877;SDS011;5998;42.676;23.268;2024-01-16T04:15:05;2.87;;;2.40;;
11877;SDS011;5998;42.676;23.268;2024-01-16T04:17:33;2.63;;;2.43;;
11877;SDS011;5998;42.676;23.268;2024-01-16T04:20:00;2.63;;;2.43;;
11877;SDS011;5998;42.676;23.268;2024-01-16T04:22:26;2.07;;;1.97;;
11877;SDS011;5998;42.676;23.268;2024-01-16T04:24:54;1.70;;;1.60;;
11877;SDS011;5998;42.676;23.268;2024-01-16T04:27:21;2.00;;;1.90;;
11877;SDS011;5998;42.676;23.268;2024-01-16T04:29:48;2.07;;;1.97;;
11877;SDS011;5998;42.676;23.268;2024-01-16T04:32:14;2.50;;;2.10;;
11877;SDS011;5998;42.676;23.268;2024-01-16T04:34:41;1.60;;;1.50;;
11877;SDS011;5998;42.676;23.268;2024-01-16T04:37:07;1.90;;;1.80;;
11877;SDS011;5998;42.676;23.268;2024-01-16T04:39:34;1.70;;;1.60;;
11877;SDS011;5998;42.676;23.268;2024-01-16T04:42:02;2.00;;;1.67;;
11877;SDS011;5998;42.676;23.268;2024-01-16T04:44:29;1.97;;;1.87;;
11877;SDS011;5998;42.676;23.268;2024-01-16T04:46:56;1.80;;;1.70;;
11877;SDS011;5998;42.676;23.268;2024-01-16T04:49:23;1.83;;;1.60;;
11877;SDS011;5998;42.676;23.268;2024-01-16T04:51:50;2.03;;;1.87;;
11877;SDS011;5998;42.676;23.268;2024-01-16T04:54:16;2.00;;;1.80;;
11877;SDS011;5998;42.676;23.268;2024-01-16T04:56:43;1.70;;;1.60;;
11877;SDS011;5998;42.676;23.268;2024-01-16T04:59:11;1.70;;;1.60;;
11877;SDS011;5998;42.676;23.268;2024-01-16T05:01:38;1.87;;;1.63;;
11877;SDS011;5998;42.676;23.268;2024-01-16T05:04:05;1.70;;;1.60;;
11877;SDS011;5998;42.676;23.268;2024-01-16T05:06:33;1.70;;;1.60;;
11877;SDS011;5998;42.676;23.268;2024-01-16T05:08:59;1.87;;;1.70;;
11877;SDS011;5998;42.676;23.268;2024-01-16T05:11:26;1.70;;;1.60;;
11877;SDS011;5998;42.676;23.268;2024-01-16T05:13:53;1.53;;;1.43;;
11877;SDS011;5998;42.676;23.268;2024-01-16T05:16:24;3.13;;;1.80;;
11877;SDS011;5998;42.676;23.268;2024-01-16T05:18:51;2.20;;;1.63;;
11877;SDS011;5998;42.676;23.268;2024-01-16T05:21:19;1.93;;;1.57;;
11877;SDS011;5998;42.676;23.268;2024-01-16T05:23:45;2.43;;;2.10;;
11877;SDS011;5998;42.676;23.268;2024-01-16T05:26:12;2.93;;;2.30;;
11877;SDS011;5998;42.676;23.268;2024-01-16T05:28:39;2.30;;;1.90;;
11877;SDS011;5998;42.676;23.268;2024-01-16T05:31:06;1.90;;;1.67;;
11877;SDS011;5998;42.676;23.268;2024-01-16T05:33:34;2.10;;;1.90;;
11877;SDS011;5998;42.676;23.268;2024-01-16T05:36:00;1.80;;;1.70;;
11877;SDS011;5998;42.676;23.268;2024-01-16T05:38:27;1.97;;;1.87;;
11877;SDS011;5998;42.676;23.268;2024-01-16T05:40:54;2.03;;;1.83;;
11877;SDS011;5998;42.676;23.268;2024-01-16T05:43:21;2.17;;;1.97;;
11877;SDS011;5998;42.676;23.268;2024-01-16T05:45:47;2.43;;;1.90;;
11877;SDS011;5998;42.676;23.268;2024-01-16T05:48:15;2.70;;;2.10;;
11877;SDS011;5998;42.676;23.268;2024-01-16T05:50:43;2.53;;;2.10;;
11877;SDS011;5998;42.676;23.268;2024-01-16T05:53:10;2.17;;;1.73;;
11877;SDS011;5998;42.676;23.268;2024-01-16T05:55:36;1.60;;;1.50;;
11877;SDS011;5998;42.676;23.268;2024-01-16T05:58:03;1.40;;;1.30;;
11877;SDS011;5998;42.676;23.268;2024-01-16T06:00:30;1.40;;;1.40;;
11877;SDS011;5998;42.676;23.268;2024-01-16T06:02:58;1.77;;;1.67;;
11877;SDS011;5998;42.676;23.268;2024-01-16T06:05:25;1.80;;;1.70;;
11877;SDS011;5998;42.676;23.268;2024-01-16T06:07:53;2.23;;;1.73;;
11877;SDS011;5998;42.676;23.268;2024-01-16T06:10:20;2.07;;;1.87;;
11877;SDS011;5998;42.676;23.268;2024-01-16T06:12:47;2.27;;;2.07;;
11877;SDS011;5998;42.676;23.268;2024-01-16T06:15:13;2.10;;;1.90;;
11877;SDS011;5998;42.676;23.268;2024-01-16T06:17:40;1.50;;;1.40;;
11877;SDS011;5998;42.676;23.268;2024-01-16T06:20:07;1.87;;;1.77;;
11877;SDS011;5998;42.676;23.268;2024-01-16T06:22:34;2.20;;;2.00;;
11877;SDS011;5998;42.676;23.268;2024-01-16T06:25:03;2.23;;;2.03;;
11877;SDS011;5998;42.676;23.268;2024-01-16T06:27:30;2.53;;;2.33;;
11877;SDS011;5998;42.676;23.268;2024-01-16T06:29:57;2.20;;;2.07;;
11877;SDS011;5998;42.676;23.268;2024-01-16T06:32:24;1.97;;;1.77;;
11877;SDS011;5998;42.676;23.268;2024-01-16T06:34:51;1.90;;;1.80;;
11877;SDS011;5998;42.676;23.268;2024-01-16T06:37:17;2.20;;;2.00;;
11877;SDS011;5998;42.676;23.268;2024-01-16T06:39:44;1.97;;;1.87;;
11877;SDS011;5998;42.676;23.268;2024-01-16T06:42:12;2.17;;;1.97;;
11877;SDS011;5998;42.676;23.268;2024-01-16T06:44:39;1.93;;;1.77;;
11877;SDS011;5998;42.676;23.268;2024-01-16T06:47:05;1.53;;;1.43;;
11877;SDS011;5998;42.676;23.268;2024-01-16T06:49:32;1.50;;;1.40;;
11877;SDS011;5998;42.676;23.268;2024-01-16T06:51:59;1.17;;;1.10;;
11877;SDS011;5998;42.676;23.268;2024-01-16T06:54:26;1.70;;;1.60;;
11877;SDS011;5998;42.676;23.268;2024-01-16T06:56:52;1.73;;;1.30;;
11877;SDS011;5998;42.676;23.268;2024-01-16T06:59:20;1.30;;;1.20;;
11877;SDS011;5998;42.676;23.268;2024-01-16T07:01:47;2.87;;;1.50;;
11877;SDS011;5998;42.676;23.268;2024-01-16T07:04:14;1.60;;;1.50;;
11877;SDS011;5998;42.676;23.268;2024-01-16T07:06:41;1.60;;;1.50;;
11877;SDS011;5998;42.676;23.268;2024-01-16T07:09:08;2.50;;;1.80;;
11877;SDS011;5998;42.676;23.268;2024-01-16T07:11:36;1.50;;;1.40;;
11877;SDS011;5998;42.676;23.268;2024-01-16T07:14:03;1.90;;;1.77;;
11877;SDS011;5998;42.676;23.268;2024-01-16T07:16:31;1.30;;;1.20;;
11877;SDS011;5998;42.676;23.268;2024-01-16T07:18:58;1.47;;;1.37;;
11877;SDS011;5998;42.676;23.268;2024-01-16T07:21:24;1.20;;;1.10;;
11877;SDS011;5998;42.676;23.268;2024-01-16T07:23:51;1.50;;;1.40;;
11877;SDS011;5998;42.676;23.268;2024-01-16T07:26:18;1.00;;;1.00;;
11877;SDS011;5998;42.676;23.268;2024-01-16T07:28:44;1.13;;;0.90;;
11877;SDS011;5998;42.676;23.268;2024-01-16T07:31:13;1.70;;;1.60;;
11877;SDS011;5998;42.676;23.268;2024-01-16T07:33:42;2.57;;;2.17;;
11877;SDS011;5998;42.676;23.268;2024-01-16T07:36:10;5.10;;;3.03;;
11877;SDS011;5998;42.676;23.268;2024-01-16T07:38:37;3.30;;;3.00;;
11877;SDS011;5998;42.676;23.268;2024-01-16T07:41:04;2.27;;;2.07;;
11877;SDS011;5998;42.676;23.268;2024-01-16T07:43:31;3.20;;;2.50;;
11877;SDS011;5998;42.676;23.268;2024-01-16T07:45:58;3.40;;;2.57;;
11877;SDS011;5998;42.676;23.268;2024-01-16T07:48:25;2.57;;;2.20;;
11877;SDS011;5998;42.676;23.268;2024-01-16T07:50:53;3.87;;;2.37;;
11877;SDS011;5998;42.676;23.268;2024-01-16T07:53:19;3.90;;;2.67;;
11877;SDS011;5998;42.676;23.268;2024-01-16T07:55:46;3.80;;;3.17;;
11877;SDS011;5998;42.676;23.268;2024-01-16T07:58:13;3.57;;;2.50;;
11877;SDS011;5998;42.676;23.268;2024-01-16T08:00:40;2.27;;;2.07;;
11877;SDS011;5998;42.676;23.268;2024-01-16T08:03:07;2.33;;;1.70;;
11877;SDS011;5998;42.676;23.268;2024-01-16T08:05:36;2.73;;;1.93;;
11877;SDS011;5998;42.676;23.268;2024-01-16T08:08:07;2.37;;;2.00;;
11877;SDS011;5998;42.676;23.268;2024-01-16T08:10:35;2.10;;;1.80;;
11877;SDS011;5998;42.676;23.268;2024-01-16T08:13:02;2.77;;;2.00;;
11877;SDS011;5998;42.676;23.268;2024-01-16T08:15:29;2.53;;;1.90;;
11877;SDS011;5998;42.676;23.268;2024-01-16T08:17:56;2.03;;;1.83;;
11877;SDS011;5998;42.676;23.268;2024-01-16T08:20:23;3.20;;;2.27;;
11877;SDS011;5998;42.676;23.268;2024-01-16T08:22:49;2.57;;;1.53;;
11877;SDS011;5998;42.676;23.268;2024-01-16T08:25:18;1.60;;;1.50;;
11877;SDS011;5998;42.676;23.268;2024-01-16T08:27:44;2.00;;;1.80;;
11877;SDS011;5998;42.676;23.268;2024-01-16T08:30:11;2.07;;;1.87;;
11877;SDS011;5998;42.676;23.268;2024-01-16T08:32:38;3.37;;;2.00;;
11877;SDS011;5998;42.676;23.268;2024-01-16T08:35:05;3.87;;;2.13;;
11877;SDS011;5998;42.676;23.268;2024-01-16T08:37:34;2.80;;;2.10;;
11877;SDS011;5998;42.676;23.268;2024-01-16T08:40:00;2.20;;;1.80;;
11877;SDS011;5998;42.676;23.268;2024-01-16T08:42:29;3.50;;;2.60;;
11877;SDS011;5998;42.676;23.268;2024-01-16T08:44:56;2.47;;;1.90;;
11877;SDS011;5998;42.676;23.268;2024-01-16T08:47:23;1.37;;;1.27;;
11877;SDS011;5998;42.676;23.268;2024-01-16T08:49:49;1.90;;;1.67;;
11877;SDS011;5998;42.676;23.268;2024-01-16T08:52:17;1.63;;;1.50;;
11877;SDS011;5998;42.676;23.268;2024-01-16T08:54:44;1.80;;;1.70;;
11877;SDS011;5998;42.676;23.268;2024-01-16T08:57:10;3.27;;;1.63;;
11877;SDS011;5998;42.676;23.268;2024-01-16T08:59:39;1.83;;;1.50;;
11877;SDS011;5998;42.676;23.268;2024-01-16T09:02:06;2.57;;;1.50;;
11877;SDS011;5998;42.676;23.268;2024-01-16T09:04:33;2.63;;;1.80;;
11877;SDS011;5998;42.676;23.268;2024-01-16T09:07:00;2.23;;;2.03;;
11877;SDS011;5998;42.676;23.268;2024-01-16T09:09:29;2.87;;;2.23;;
11877;SDS011;5998;42.676;23.268;2024-01-16T09:11:56;1.90;;;1.63;;
11877;SDS011;5998;42.676;23.268;2024-01-16T09:14:23;2.60;;;1.90;;
11877;SDS011;5998;42.676;23.268;2024-01-16T09:16:51;2.67;;;1.80;;
11877;SDS011;5998;42.676;23.268;2024-01-16T09:19:19;2.00;;;1.90;;
11877;SDS011;5998;42.676;23.268;2024-01-16T09:21:45;2.50;;;2.20;;
11877;SDS011;5998;42.676;23.268;2024-01-16T09:24:12;2.77;;;2.30;;
11877;SDS011;5998;42.676;23.268;2024-01-16T09:26:39;4.97;;;2.10;;
11877;SDS011;5998;42.676;23.268;2024-01-16T09:29:05;3.00;;;2.10;;
11877;SDS011;5998;42.676;23.268;2024-01-16T09:31:33;3.43;;;2.50;;
11877;SDS011;5998;42.676;23.268;2024-01-16T09:34:02;3.87;;;1.80;;
11877;SDS011;5998;42.676;23.268;2024-01-16T09:36:28;3.17;;;2.00;;
11877;SDS011;5998;42.676;23.268;2024-01-16T09:38:55;2.27;;;1.80;;
11877;SDS011;5998;42.676;23.268;2024-01-16T09:41:22;2.57;;;1.73;;
11877;SDS011;5998;42.676;23.268;2024-01-16T09:43:49;1.93;;;1.37;;
11877;SDS011;5998;42.676;23.268;2024-01-16T09:46:17;4.77;;;1.80;;
11877;SDS011;5998;42.676;23.268;2024-01-16T09:48:46;2.53;;;1.80;;
11877;SDS011;5998;42.676;23.268;2024-01-16T09:51:17;3.20;;;2.10;;
11877;SDS011;5998;42.676;23.268;2024-01-16T09:53:43;2.40;;;1.77;;
11877;SDS011;5998;42.676;23.268;2024-01-16T09:56:12;3.27;;;1.97;;
11877;SDS011;5998;42.676;23.268;2024-01-16T09:58:41;2.97;;;1.80;;
11877;SDS011;5998;42.676;23.268;2024-01-16T10:01:10;1.77;;;1.60;;
11877;SDS011;5998;42.676;23.268;2024-01-16T10:03:38;3.47;;;2.60;;
11877;SDS011;5998;42.676;23.268;2024-01-16T10:06:07;4.67;;;2.30;;
11877;SDS011;5998;42.676;23.268;2024-01-16T10:08:35;2.53;;;2.27;;
11877;SDS011;5998;42.676;23.268;2024-01-16T10:11:03;3.40;;;2.33;;
11877;SDS011;5998;42.676;23.268;2024-01-16T10:13:30;2.27;;;1.50;;
11877;SDS011;5998;42.676;23.268;2024-01-16T10:15:58;4.83;;;3.30;;
11877;SDS011;5998;42.676;23.268;2024-01-16T10:18:26;2.67;;;2.30;;
11877;SDS011;5998;42.676;23.268;2024-01-16T10:20:55;3.83;;;2.77;;
11877;SDS011;5998;42.676;23.268;2024-01-16T10:23:22;3.57;;;2.73;;
11877;SDS011;5998;42.676;23.268;2024-01-16T10:28:43;2.87;;;2.10;;
11877;SDS011;5998;42.676;23.268;2024-01-16T10:31:10;4.13;;;2.23;;
11877;SDS011;5998;42.676;23.268;2024-01-16T10:33:39;5.17;;;1.83;;
11877;SDS011;5998;42.676;23.268;2024-01-16T10:36:10;1.50;;;1.40;;
11877;SDS011;5998;42.676;23.268;2024-01-16T10:38:37;1.73;;;1.60;;
11877;SDS011;5998;42.676;23.268;2024-01-16T10:41:05;2.33;;;2.13;;
11877;SDS011;5998;42.676;23.268;2024-01-16T10:43:36;2.43;;;1.97;;
11877;SDS011;5998;42.676;23.268;2024-01-16T10:46:08;2.40;;;1.90;;
11877;SDS011;5998;42.676;23.268;2024-01-16T10:48:37;2.23;;;1.60;;
11877;SDS011;5998;42.676;23.268;2024-01-16T10:51:04;3.30;;;3.00;;
11877;SDS011;5998;42.676;23.268;2024-01-16T10:53:32;2.40;;;1.67;;
11877;SDS011;5998;42.676;23.268;2024-01-16T10:56:01;3.50;;;2.00;;
11877;SDS011;5998;42.676;23.268;2024-01-16T10:58:30;2.23;;;1.80;;
11877;SDS011;5998;42.676;23.268;2024-01-16T11:00:57;2.03;;;1.93;;
11877;SDS011;5998;42.676;23.268;2024-01-16T11:03:31;1.90;;;1.70;;
11877;SDS011;5998;42.676;23.268;2024-01-16T11:06:02;3.50;;;1.60;;
11877;SDS011;5998;42.676;23.268;2024-01-16T11:08:33;2.60;;;2.20;;
11877;SDS011;5998;42.676;23.268;2024-01-16T11:11:01;4.47;;;1.63;;
11877;SDS011;5998;42.676;23.268;2024-01-16T11:13:29;1.70;;;1.60;;
11877;SDS011;5998;42.676;23.268;2024-01-16T11:15:58;2.30;;;1.90;;
11877;SDS011;5998;42.676;23.268;2024-01-16T11:18:26;3.43;;;2.13;;
11877;SDS011;5998;42.676;23.268;2024-01-16T11:20:57;3.63;;;2.20;;
11877;SDS011;5998;42.676;23.268;2024-01-16T11:23:25;2.20;;;2.00;;
11877;SDS011;5998;42.676;23.268;2024-01-16T11:25:52;2.10;;;1.90;;
11877;SDS011;5998;42.676;23.268;2024-01-16T11:28:19;2.47;;;2.27;;
11877;SDS011;5998;42.676;23.268;2024-01-16T11:30:46;2.17;;;1.97;;
11877;SDS011;5998;42.676;23.268;2024-01-16T11:39:18;6.97;;;2.60;;
11877;SDS011;5998;42.676;23.268;2024-01-16T11:41:51;4.47;;;2.40;;
11877;SDS011;5998;42.676;23.268;2024-01-16T11:47:08;3.23;;;2.93;;
11877;SDS011;5998;42.676;23.268;2024-01-16T11:49:36;4.23;;;2.63;;
11877;SDS011;5998;42.676;23.268;2024-01-16T11:52:03;3.30;;;2.60;;
11877;SDS011;5998;42.676;23.268;2024-01-16T11:54:31;3.77;;;3.03;;
11877;SDS011;5998;42.676;23.268;2024-01-16T12:00:02;4.23;;;3.70;;
11877;SDS011;5998;42.676;23.268;2024-01-16T12:02:46;5.40;;;3.73;;
11877;SDS011;5998;42.676;23.268;2024-01-16T12:05:17;2.87;;;2.60;;
11877;SDS011;5998;42.676;23.268;2024-01-16T12:07:47;4.80;;;2.80;;
11877;SDS011;5998;42.676;23.268;2024-01-16T12:10:19;3.40;;;2.23;;
11877;SDS011;5998;42.676;23.268;2024-01-16T12:12:47;3.80;;;1.90;;
11877;SDS011;5998;42.676;23.268;2024-01-16T12:15:15;1.73;;;1.60;;
11877;SDS011;5998;42.676;23.268;2024-01-16T12:17:52;1.70;;;1.60;;
11877;SDS011;5998;42.676;23.268;2024-01-16T12:20:20;1.40;;;1.23;;
11877;SDS011;5998;42.676;23.268;2024-01-16T12:22:52;1.73;;;1.60;;
11877;SDS011;5998;42.676;23.268;2024-01-16T12:25:24;1.50;;;1.33;;
11877;SDS011;5998;42.676;23.268;2024-01-16T12:27:55;3.20;;;1.90;;
11877;SDS011;5998;42.676;23.268;2024-01-16T12:30:23;1.87;;;1.77;;
11877;SDS011;5998;42.676;23.268;2024-01-16T12:32:51;1.97;;;1.73;;
11877;SDS011;5998;42.676;23.268;2024-01-16T12:35:21;2.13;;;1.60;;
11877;SDS011;5998;42.676;23.268;2024-01-16T12:37:58;3.80;;;1.77;;
11877;SDS011;5998;42.676;23.268;2024-01-16T12:40:27;1.67;;;1.57;;
11877;SDS011;5998;42.676;23.268;2024-01-16T12:42:54;2.00;;;1.80;;
11877;SDS011;5998;42.676;23.268;2024-01-16T12:45:21;2.07;;;1.90;;
11877;SDS011;5998;42.676;23.268;2024-01-16T12:47:51;1.60;;;1.50;;
11877;SDS011;5998;42.676;23.268;2024-01-16T12:50:19;2.60;;;1.83;;
11877;SDS011;5998;42.676;23.268;2024-01-16T12:52:47;1.93;;;1.83;;
11877;SDS011;5998;42.676;23.268;2024-01-16T12:55:14;2.10;;;1.50;;
11877;SDS011;5998;42.676;23.268;2024-01-16T12:57:44;3.80;;;2.00;;
11877;SDS011;5998;42.676;23.268;2024-01-16T13:00:20;2.77;;;2.20;;
11877;SDS011;5998;42.676;23.268;2024-01-16T13:02:49;3.33;;;3.03;;
11877;SDS011;5998;42.676;23.268;2024-01-16T13:05:16;2.40;;;2.10;;
11877;SDS011;5998;42.676;23.268;2024-01-16T13:07:43;2.10;;;2.00;;
11877;SDS011;5998;42.676;23.268;2024-01-16T13:10:11;2.83;;;1.77;;
11877;SDS011;5998;42.676;23.268;2024-01-16T13:12:41;1.67;;;1.57;;
11877;SDS011;5998;42.676;23.268;2024-01-16T13:15:09;1.30;;;1.20;;
11877;SDS011;5998;42.676;23.268;2024-01-16T13:17:36;1.60;;;1.50;;
11877;SDS011;5998;42.676;23.268;2024-01-16T13:20:03;2.57;;;2.00;;
11877;SDS011;5998;42.676;23.268;2024-01-16T13:22:32;4.77;;;2.20;;
11877;SDS011;5998;42.676;23.268;2024-01-16T13:24:59;1.70;;;1.60;;
11877;SDS011;5998;42.676;23.268;2024-01-16T13:27:26;2.17;;;1.90;;
11877;SDS011;5998;42.676;23.268;2024-01-16T13:29:54;5.27;;;2.20;;
11877;SDS011;5998;42.676;23.268;2024-01-16T13:32:23;3.40;;;1.90;;
11877;SDS011;5998;42.676;23.268;2024-01-16T13:34:51;2.73;;;2.00;;
11877;SDS011;5998;42.676;23.268;2024-01-16T13:37:18;2.50;;;2.30;;
11877;SDS011;5998;42.676;23.268;2024-01-16T13:39:47;3.50;;;2.33;;
11877;SDS011;5998;42.676;23.268;2024-01-16T13:42:13;3.07;;;2.20;;
11877;SDS011;5998;42.676;23.268;2024-01-16T13:44:43;2.00;;;1.80;;
11877;SDS011;5998;42.676;23.268;2024-01-16T13:47:11;4.70;;;1.77;;
11877;SDS011;5998;42.676;23.268;2024-01-16T13:49:39;2.87;;;2.00;;
11877;SDS011;5998;42.676;23.268;2024-01-16T13:52:06;1.73;;;1.63;;
11877;SDS011;5998;42.676;23.268;2024-01-16T13:54:35;2.17;;;1.90;;
11877;SDS011;5998;42.676;23.268;2024-01-16T13:57:03;2.53;;;2.20;;
11877;SDS011;5998;42.676;23.268;2024-01-16T13:59:30;3.70;;;2.27;;
11877;SDS011;5998;42.676;23.268;2024-01-16T14:01:57;2.40;;;2.20;;
11877;SDS011;5998;42.676;23.268;2024-01-16T14:04:23;3.27;;;2.53;;
11877;SDS011;5998;42.676;23.268;2024-01-16T14:06:51;4.13;;;2.40;;
11877;SDS011;5998;42.676;23.268;2024-01-16T14:09:18;2.90;;;2.60;;
11877;SDS011;5998;42.676;23.268;2024-01-16T14:11:45;4.47;;;3.10;;
11877;SDS011;5998;42.676;23.268;2024-01-16T14:14:12;6.70;;;2.83;;
11877;SDS011;5998;42.676;23.268;2024-01-16T14:16:38;3.93;;;2.97;;
11877;SDS011;5998;42.676;23.268;2024-01-16T14:19:05;4.27;;;3.60;;
11877;SDS011;5998;42.676;23.268;2024-01-16T14:21:31;2.87;;;2.67;;
11877;SDS011;5998;42.676;23.268;2024-01-16T14:23:59;3.97;;;2.93;;
11877;SDS011;5998;42.676;23.268;2024-01-16T14:26:26;3.37;;;2.90;;
11877;SDS011;5998;42.676;23.268;2024-01-16T14:28:53;3.70;;;2.63;;
11877;SDS011;5998;42.676;23.268;2024-01-16T14:31:20;2.60;;;2.37;;
11877;SDS011;5998;42.676;23.268;2024-01-16T14:33:46;3.73;;;2.77;;
11877;SDS011;5998;42.676;23.268;2024-01-16T14:36:13;4.37;;;2.50;;
11877;SDS011;5998;42.676;23.268;2024-01-16T14:38:40;5.20;;;2.93;;
11877;SDS011;5998;42.676;23.268;2024-01-16T14:41:09;8.83;;;3.20;;
11877;SDS011;5998;42.676;23.268;2024-01-16T14:43:37;7.87;;;2.97;;
11877;SDS011;5998;42.676;23.268;2024-01-16T14:46:04;5.27;;;2.87;;
11877;SDS011;5998;42.676;23.268;2024-01-16T14:48:35;3.70;;;3.33;;
11877;SDS011;5998;42.676;23.268;2024-01-16T14:51:02;4.67;;;3.23;;
11877;SDS011;5998;42.676;23.268;2024-01-16T14:53:29;5.50;;;3.63;;
11877;SDS011;5998;42.676;23.268;2024-01-16T14:55:56;8.23;;;3.00;;
11877;SDS011;5998;42.676;23.268;2024-01-16T14:58:24;5.37;;;3.10;;
11877;SDS011;5998;42.676;23.268;2024-01-16T15:00:51;4.63;;;3.20;;